Time;durP1;ratioP1;P1;durP2;ratioP2;P2;SDS_P1;SDS_P2;PMS_P1;PMS_P2;Temp;Humidity;BMP_temperature;BMP_pressure;BME280_temperature;BME280_humidity;BME280_pressure;Samples;Min_cycle;Max_cycle;Signal;HPM_P1;HPM_P2
2023/03/23 00:02:49;;;;;;;0.80;0.80;;;15.40;75.20;;;;;;6288165;28;20045;-80
2023/03/23 00:05:52;;;;;;;4.25;0.70;;;15.50;75.10;;;;;;6293394;28;20040;-80
2023/03/23 00:08:59;;;;;;;2.15;1.05;;;15.50;74.90;;;;;;6291794;28;20056;-80
2023/03/23 00:12:05;;;;;;;1.35;0.90;;;15.60;74.60;;;;;;6287635;28;20104;-79
2023/03/23 00:15:12;;;;;;;1.15;0.90;;;15.60;74.60;;;;;;6295029;28;20052;-79
2023/03/23 00:18:20;;;;;;;0.90;0.90;;;15.70;74.50;;;;;;6288688;28;20090;-78
2023/03/23 00:21:25;;;;;;;0.60;0.60;;;15.70;74.40;;;;;;6294323;28;20050;-79
2023/03/23 00:24:26;;;;;;;1.33;0.80;;;15.70;74.40;;;;;;6300305;28;20087;-79
2023/03/23 00:27:29;;;;;;;2.20;0.88;;;15.80;74.10;;;;;;6300862;28;20113;-79
2023/03/23 00:30:31;;;;;;;1.08;0.90;;;15.80;73.90;;;;;;6296622;28;20049;-79
2023/03/23 00:33:37;;;;;;;1.45;1.35;;;15.80;73.80;;;;;;6298977;28;20036;-80
2023/03/23 00:36:42;;;;;;;1.17;1.05;;;15.90;73.70;;;;;;6259462;28;20161;-80
2023/03/23 00:39:46;;;;;;;2.10;0.70;;;16.00;73.70;;;;;;6303814;28;20467;-80
2023/03/23 00:42:49;;;;;;;1.98;0.95;;;15.90;73.30;;;;;;6304486;28;20409;-80
2023/03/23 00:45:52;;;;;;;1.00;0.80;;;16.00;73.20;;;;;;6302735;28;20044;-80
2023/03/23 00:48:54;;;;;;;1.30;1.08;;;16.00;73.10;;;;;;6303457;28;20122;-80
2023/03/23 00:51:58;;;;;;;1.10;1.00;;;16.00;73.10;;;;;;6298932;28;20104;-80
2023/03/23 00:55:00;;;;;;;1.15;1.05;;;16.00;73.10;;;;;;6303197;28;20057;-79
2023/03/23 00:58:03;;;;;;;1.13;1.00;;;16.00;73.10;;;;;;6302599;28;20052;-80
2023/03/23 01:01:05;;;;;;;0.80;0.80;;;16.00;73.20;;;;;;6303816;28;20087;-80
2023/03/23 01:04:07;;;;;;;1.60;1.05;;;16.10;73.30;;;;;;6298899;28;20395;-80
2023/03/23 01:07:12;;;;;;;1.17;1.00;;;16.10;73.30;;;;;;6294185;28;20404;-81
2023/03/23 01:10:17;;;;;;;1.17;1.08;;;16.00;73.30;;;;;;6295924;28;20047;-80
2023/03/23 01:13:22;;;;;;;2.88;1.10;;;16.10;73.40;;;;;;6292739;28;20074;-79
2023/03/23 01:16:25;;;;;;;1.52;0.70;;;16.10;73.40;;;;;;6297032;28;20070;-80
2023/03/23 01:19:26;;;;;;;2.95;1.33;;;16.00;73.30;;;;;;6292615;28;20052;-79
2023/03/23 01:22:28;;;;;;;1.02;0.93;;;16.20;73.40;;;;;;6297420;28;20628;-79
2023/03/23 01:25:31;;;;;;;1.00;0.90;;;16.10;73.30;;;;;;6299636;28;20052;-79
2023/03/23 01:28:35;;;;;;;3.10;1.08;;;16.10;73.00;;;;;;6302434;28;20100;-81
2023/03/23 01:31:37;;;;;;;2.30;0.70;;;16.10;72.80;;;;;;6303252;28;20056;-80
2023/03/23 01:34:39;;;;;;;1.30;1.20;;;16.20;72.70;;;;;;6302647;28;20045;-79
2023/03/23 01:37:41;;;;;;;2.60;1.00;;;16.20;72.40;;;;;;6301727;28;20064;-79
2023/03/23 01:40:44;;;;;;;1.95;1.17;;;16.30;72.30;;;;;;6298924;28;20048;-80
2023/03/23 01:44:02;;;;;;;0.68;0.60;;;16.30;72.00;;;;;;6288852;28;20052;-79
2023/03/23 01:47:04;;;;;;;1.05;0.93;;;16.40;71.80;;;;;;6294702;28;20053;-78
2023/03/23 01:50:07;;;;;;;0.95;0.80;;;16.40;71.60;;;;;;6250469;28;20043;-80
2023/03/23 01:53:11;;;;;;;1.00;0.98;;;16.50;71.30;;;;;;6286371;28;20048;-79
2023/03/23 01:56:17;;;;;;;2.00;1.10;;;16.60;71.10;;;;;;6256463;28;20528;-80
2023/03/23 01:59:21;;;;;;;1.67;1.50;;;16.60;70.90;;;;;;6294203;28;20085;-79
2023/03/23 02:02:26;;;;;;;0.77;0.65;;;16.60;70.70;;;;;;6292997;28;20066;-80
2023/03/23 02:05:33;;;;;;;1.83;0.98;;;16.70;70.50;;;;;;6294798;28;20048;-81
2023/03/23 02:08:36;;;;;;;1.13;0.80;;;16.70;70.30;;;;;;6296721;28;20052;-79
2023/03/23 02:11:39;;;;;;;1.02;1.00;;;16.70;70.30;;;;;;6284268;28;20056;-79
2023/03/23 02:14:42;;;;;;;1.75;1.25;;;16.70;70.20;;;;;;6292426;28;20044;-79
2023/03/23 02:17:50;;;;;;;1.15;1.02;;;16.80;70.10;;;;;;6292032;28;20044;-80
2023/03/23 02:21:18;;;;;;;1.38;0.95;;;16.80;70.10;;;;;;6292534;28;20049;-80
2023/03/23 02:24:41;;;;;;;1.70;0.93;;;16.80;69.90;;;;;;6296085;28;20076;-79
2023/03/23 02:28:12;;;;;;;3.13;1.20;;;16.80;69.80;;;;;;6294772;28;20068;-80
2023/03/23 02:31:38;;;;;;;1.95;0.77;;;16.80;69.80;;;;;;6268528;28;20047;-80
2023/03/23 02:34:43;;;;;;;1.50;1.13;;;16.90;69.80;;;;;;6259544;28;20058;-81
2023/03/23 02:37:53;;;;;;;1.05;0.80;;;16.90;69.80;;;;;;6298681;28;20060;-79
2023/03/23 02:40:57;;;;;;;2.55;1.02;;;16.90;69.70;;;;;;6250199;28;20046;-79
2023/03/23 02:44:02;;;;;;;3.05;1.50;;;16.90;69.70;;;;;;6291291;28;20104;-80
2023/03/23 02:47:08;;;;;;;1.48;1.20;;;16.90;70.30;;;;;;6306644;28;20588;-80
2023/03/23 02:50:15;;;;;;;1.90;1.48;;;17.00;69.80;;;;;;6300864;28;20060;-80
2023/03/23 02:53:22;;;;;;;2.13;1.35;;;17.00;69.80;;;;;;6299765;28;20055;-80
2023/03/23 02:56:27;;;;;;;1.85;1.20;;;16.90;70.00;;;;;;6302479;28;20100;-80
2023/03/23 02:59:29;;;;;;;1.40;1.00;;;16.90;70.20;;;;;;6302948;28;20056;-80
2023/03/23 03:02:36;;;;;;;1.65;1.52;;;16.90;70.20;;;;;;6301357;28;20112;-80
2023/03/23 03:05:45;;;;;;;0.77;0.77;;;16.90;70.30;;;;;;6299939;28;20045;-79
2023/03/23 03:08:51;;;;;;;1.13;1.00;;;16.90;70.30;;;;;;6298312;28;20044;-80
2023/03/23 03:12:02;;;;;;;1.50;1.15;;;16.90;70.60;;;;;;6296431;28;20626;-81
2023/03/23 03:15:22;;;;;;;1.85;1.25;;;16.90;71.00;;;;;;6256085;28;20052;-80
2023/03/23 03:18:30;;;;;;;3.03;1.13;;;16.80;71.60;;;;;;6293749;28;20059;-79
2023/03/23 03:21:37;;;;;;;1.15;1.05;;;16.70;71.90;;;;;;6298113;28;20075;-80
2023/03/23 03:24:40;;;;;;;2.28;1.58;;;16.70;72.20;;;;;;6294620;28;20136;-80
2023/03/23 03:27:49;;;;;;;1.15;0.85;;;16.60;72.40;;;;;;6294103;28;20136;-79
2023/03/23 03:30:54;;;;;;;1.20;1.02;;;16.60;72.80;;;;;;6292542;28;20550;-80
2023/03/23 03:34:01;;;;;;;2.20;1.13;;;16.60;73.10;;;;;;6291713;28;20052;-79
2023/03/23 03:37:05;;;;;;;1.75;1.17;;;16.50;73.40;;;;;;6271785;28;20040;-79
2023/03/23 03:40:11;;;;;;;2.55;1.30;;;16.50;73.60;;;;;;6288045;28;20068;-79
2023/03/23 03:43:13;;;;;;;1.30;1.20;;;16.50;73.80;;;;;;6285394;28;20048;-79
2023/03/23 03:46:17;;;;;;;2.95;1.15;;;16.50;73.80;;;;;;6285627;28;20047;-79
2023/03/23 03:49:19;;;;;;;1.38;1.10;;;16.40;74.00;;;;;;6292996;28;20049;-80
2023/03/23 03:52:31;;;;;;;1.38;1.23;;;16.40;74.10;;;;;;6289618;28;20391;-82
2023/03/23 03:55:35;;;;;;;2.22;1.40;;;16.40;74.30;;;;;;6256858;28;20053;-80
2023/03/23 03:58:36;;;;;;;0.80;0.80;;;16.40;74.50;;;;;;6292212;28;20058;-81
2023/03/23 04:01:39;;;;;;;1.13;0.98;;;16.30;74.60;;;;;;6290537;28;20045;-81
2023/03/23 04:04:43;;;;;;;1.25;0.80;;;16.30;74.80;;;;;;6286664;28;20040;-80
2023/03/23 04:07:49;;;;;;;3.83;1.13;;;16.40;75.00;;;;;;6291712;28;20059;-81
2023/03/23 04:10:52;;;;;;;1.20;0.98;;;16.30;75.00;;;;;;6295546;28;20052;-81
2023/03/23 04:13:53;;;;;;;2.95;0.93;;;16.20;75.10;;;;;;6292831;28;20045;-82
2023/03/23 04:16:56;;;;;;;1.80;1.67;;;16.30;75.30;;;;;;6296827;28;20049;-80
2023/03/23 04:19:59;;;;;;;1.65;1.40;;;16.20;75.30;;;;;;6298403;28;20052;-80
2023/03/23 04:23:02;;;;;;;1.55;1.33;;;16.20;75.40;;;;;;6299063;28;20111;-80
2023/03/23 04:26:05;;;;;;;4.78;1.23;;;16.30;75.60;;;;;;6294403;28;20049;-80
2023/03/23 04:29:06;;;;;;;1.45;1.15;;;16.20;75.70;;;;;;6299426;28;20083;-81
2023/03/23 04:32:08;;;;;;;4.32;1.25;;;16.20;75.90;;;;;;6296486;28;20442;-80
2023/03/23 04:35:12;;;;;;;0.98;0.88;;;16.20;76.10;;;;;;6296434;28;20051;-79
2023/03/23 04:38:20;;;;;;;1.67;1.25;;;16.20;76.40;;;;;;6293322;28;20048;-81
2023/03/23 04:41:22;;;;;;;1.52;0.75;;;16.10;76.60;;;;;;6301763;28;20051;-80
2023/03/23 04:44:23;;;;;;;5.68;1.70;;;16.10;76.70;;;;;;6301079;28;20056;-80
2023/03/23 04:47:29;;;;;;;3.38;1.33;;;16.10;76.90;;;;;;6302957;28;20113;-81
2023/03/23 04:50:32;;;;;;;2.55;1.20;;;16.00;77.10;;;;;;6305425;28;20479;-81
2023/03/23 04:53:35;;;;;;;2.58;1.77;;;16.00;77.40;;;;;;6303123;28;20055;-80
2023/03/23 04:56:37;;;;;;;1.80;1.58;;;15.90;77.70;;;;;;6306034;28;20057;-82
2023/03/23 04:59:40;;;;;;;1.20;1.10;;;15.90;78.10;;;;;;6298232;28;20051;-83
2023/03/23 05:02:43;;;;;;;4.07;1.42;;;15.80;78.30;;;;;;6303747;28;20743;-82
2023/03/23 05:05:51;;;;;;;1.48;1.33;;;15.80;78.70;;;;;;6299725;28;20047;-80
2023/03/23 05:08:54;;;;;;;1.48;1.10;;;15.70;78.80;;;;;;6302419;28;20111;-81
2023/03/23 05:11:57;;;;;;;2.55;1.52;;;15.70;79.70;;;;;;6296096;28;20040;-84
2023/03/23 05:14:59;;;;;;;3.00;1.73;;;15.60;80.70;;;;;;6301789;28;20055;-79
2023/03/23 05:18:01;;;;;;;1.27;1.17;;;15.50;81.70;;;;;;6299625;28;20086;-82
2023/03/23 05:21:03;;;;;;;1.60;1.50;;;15.40;82.60;;;;;;6301267;28;20112;-81
2023/03/23 05:24:07;;;;;;;3.65;1.70;;;15.30;83.60;;;;;;6255529;28;20099;-82
2023/03/23 05:27:09;;;;;;;2.92;1.65;;;15.20;84.50;;;;;;6299663;28;20056;-81
2023/03/23 05:30:15;;;;;;;1.55;1.45;;;15.10;85.20;;;;;;6300284;28;20049;-82
2023/03/23 05:33:17;;;;;;;2.15;1.40;;;14.90;85.80;;;;;;6297031;28;20055;-80
2023/03/23 05:36:18;;;;;;;1.77;1.65;;;14.90;86.30;;;;;;6298552;28;20053;-81
2023/03/23 05:39:21;;;;;;;2.15;1.80;;;14.80;86.70;;;;;;6302060;28;20062;-81
2023/03/23 05:42:24;;;;;;;2.85;1.80;;;14.80;86.90;;;;;;6300782;28;20037;-81
2023/03/23 05:45:26;;;;;;;1.85;1.70;;;14.80;87.40;;;;;;6297590;28;20086;-81
2023/03/23 05:48:28;;;;;;;3.50;1.77;;;14.70;87.70;;;;;;6302547;28;20075;-80
2023/03/23 05:51:29;;;;;;;2.63;1.98;;;14.70;88.50;;;;;;6301147;28;20060;-80
2023/03/23 05:54:33;;;;;;;2.60;2.05;;;14.70;89.50;;;;;;6291549;28;20060;-81
2023/03/23 05:57:35;;;;;;;3.42;2.10;;;14.50;90.30;;;;;;6294594;28;20372;-81
2023/03/23 06:00:37;;;;;;;2.90;1.90;;;14.40;90.60;;;;;;6294993;28;20044;-81
2023/03/23 06:03:39;;;;;;;2.13;1.77;;;14.30;90.80;;;;;;6283100;28;20060;-81
2023/03/23 06:06:45;;;;;;;2.17;1.63;;;14.30;91.10;;;;;;6285981;28;20063;-80
2023/03/23 06:09:49;;;;;;;2.35;2.15;;;14.20;91.10;;;;;;6291426;28;20060;-80
2023/03/23 06:12:51;;;;;;;2.58;1.90;;;14.20;91.30;;;;;;6293506;28;20048;-80
2023/03/23 06:15:58;;;;;;;1.83;1.67;;;14.20;91.40;;;;;;6292681;28;20095;-80
2023/03/23 06:19:01;;;;;;;3.03;1.60;;;14.20;91.60;;;;;;6293164;28;20052;-81
2023/03/23 06:22:05;;;;;;;2.30;1.90;;;14.20;91.70;;;;;;6294469;28;20638;-79
2023/03/23 06:25:11;;;;;;;1.95;1.67;;;14.20;91.90;;;;;;6293935;28;20048;-80
2023/03/23 06:28:12;;;;;;;4.72;2.13;;;14.20;92.20;;;;;;6245818;28;20777;-81
2023/03/23 06:31:14;;;;;;;3.05;1.65;;;14.20;92.30;;;;;;6297801;28;20131;-80
2023/03/23 06:34:16;;;;;;;1.83;1.73;;;14.30;92.50;;;;;;6280440;28;20080;-81
2023/03/23 06:37:18;;;;;;;2.97;1.70;;;14.30;92.70;;;;;;6289452;28;20048;-81
2023/03/23 06:40:21;;;;;;;3.30;1.85;;;14.30;92.80;;;;;;6290155;28;20048;-80
2023/03/23 06:43:24;;;;;;;3.00;1.95;;;14.30;93.00;;;;;;6294058;28;20049;-82
2023/03/23 06:46:30;;;;;;;2.90;1.52;;;14.30;93.00;;;;;;6288420;28;20075;-81
2023/03/23 06:49:32;;;;;;;2.03;1.80;;;14.40;93.10;;;;;;6289414;28;20045;-80
2023/03/23 06:52:35;;;;;;;2.50;2.00;;;14.30;93.20;;;;;;6285699;28;20447;-80
2023/03/23 06:55:38;;;;;;;3.33;1.70;;;14.30;93.30;;;;;;6290697;28;20048;-81
2023/03/23 06:58:41;;;;;;;2.55;2.35;;;14.30;93.30;;;;;;6291674;28;20037;-81
2023/03/23 07:01:44;;;;;;;3.22;2.25;;;14.30;93.40;;;;;;6290017;28;20479;-81
2023/03/23 07:04:46;;;;;;;2.58;2.38;;;14.30;93.40;;;;;;6293076;28;20044;-82
2023/03/23 07:07:48;;;;;;;2.42;1.60;;;14.30;93.40;;;;;;6292098;28;20048;-82
2023/03/23 07:10:54;;;;;;;2.47;2.28;;;14.30;93.60;;;;;;6291634;28;20045;-80
2023/03/23 07:13:56;;;;;;;3.55;1.85;;;14.30;93.80;;;;;;6292024;28;20051;-81
2023/03/23 07:16:57;;;;;;;2.25;2.05;;;14.20;94.10;;;;;;6292945;28;20071;-82
2023/03/23 07:19:59;;;;;;;4.15;1.83;;;14.20;94.50;;;;;;6292735;28;20040;-81
2023/03/23 07:23:02;;;;;;;1.85;1.70;;;14.30;95.00;;;;;;6285183;28;20086;-79
2023/03/23 07:26:06;;;;;;;5.25;1.83;;;14.20;95.50;;;;;;6247793;28;20063;-82
2023/03/23 07:29:08;;;;;;;4.53;2.10;;;14.20;96.00;;;;;;6291304;28;20045;-80
2023/03/23 07:32:12;;;;;;;3.50;2.67;;;14.20;96.50;;;;;;6290032;28;20056;-81
2023/03/23 07:35:15;;;;;;;2.65;2.03;;;14.10;97.00;;;;;;6291727;28;20052;-81
2023/03/23 07:38:17;;;;;;;3.60;1.83;;;14.00;97.50;;;;;;6292731;28;20178;-81
2023/03/23 07:41:22;;;;;;;3.92;2.47;;;14.00;97.80;;;;;;6296646;28;20044;-82
2023/03/23 07:44:23;;;;;;;2.45;2.13;;;13.90;98.10;;;;;;6284547;28;20143;-81
2023/03/23 07:47:26;;;;;;;2.30;1.90;;;13.90;98.40;;;;;;6294196;28;20147;-80
2023/03/23 07:50:28;;;;;;;4.50;2.03;;;13.90;98.70;;;;;;6294160;28;20132;-82
2023/03/23 07:53:31;;;;;;;3.45;1.75;;;13.90;98.90;;;;;;6292494;28;20052;-82
2023/03/23 07:56:36;;;;;;;5.65;2.53;;;13.90;99.20;;;;;;6289985;28;20063;-80
2023/03/23 07:59:38;;;;;;;3.03;2.50;;;14.00;99.70;;;;;;6290460;28;20051;-81
2023/03/23 08:02:41;;;;;;;2.40;2.15;;;14.00;99.90;;;;;;6250331;28;20060;-80
2023/03/23 08:05:43;;;;;;;2.40;2.17;;;14.10;99.90;;;;;;6281351;28;20041;-79
2023/03/23 08:08:45;;;;;;;3.60;1.80;;;14.20;99.90;;;;;;6291010;28;20044;-82
2023/03/23 08:11:48;;;;;;;3.13;1.98;;;14.30;99.90;;;;;;6292317;28;20052;-82
2023/03/23 08:14:51;;;;;;;1.80;1.50;;;14.60;99.90;;;;;;6292471;28;20082;-82
2023/03/23 08:17:54;;;;;;;1.42;1.33;;;14.80;99.90;;;;;;6293543;28;20126;-80
2023/03/23 08:20:55;;;;;;;1.83;1.48;;;15.00;99.90;;;;;;6291575;28;20048;-82
2023/03/23 08:23:57;;;;;;;2.67;1.75;;;15.20;99.90;;;;;;6294793;28;20415;-82
2023/03/23 08:27:00;;;;;;;3.78;1.50;;;15.40;99.90;;;;;;6297393;28;20133;-83
2023/03/23 08:30:04;;;;;;;1.50;1.40;;;15.50;99.90;;;;;;6298781;28;20402;-83
2023/03/23 08:33:07;;;;;;;2.75;1.25;;;15.70;99.60;;;;;;6299270;28;21048;-82
2023/03/23 08:36:10;;;;;;;1.67;1.58;;;15.90;99.10;;;;;;6297807;28;20048;-82
2023/03/23 08:39:11;;;;;;;2.50;1.75;;;16.20;98.90;;;;;;6299600;28;20060;-83
2023/03/23 08:42:15;;;;;;;3.00;1.63;;;16.40;98.70;;;;;;6299130;28;20052;-81
2023/03/23 08:45:20;;;;;;;2.42;1.25;;;16.80;98.00;;;;;;6298734;28;20040;-82
2023/03/23 08:48:22;;;;;;;3.50;1.55;;;16.90;97.30;;;;;;6299634;28;20044;-81
2023/03/23 08:51:25;;;;;;;2.67;1.60;;;16.90;96.50;;;;;;6303608;28;20052;-82
2023/03/23 08:54:26;;;;;;;2.08;1.38;;;16.90;96.10;;;;;;6299658;28;20051;-84
2023/03/23 08:57:30;;;;;;;2.03;1.42;;;16.70;95.70;;;;;;6301760;28;20052;-83
2023/03/23 09:00:32;;;;;;;2.53;1.20;;;16.70;95.60;;;;;;6296269;28;20052;-82
2023/03/23 09:03:34;;;;;;;2.03;1.70;;;16.50;95.70;;;;;;6296306;28;20497;-83
2023/03/23 09:06:37;;;;;;;1.50;1.40;;;16.30;95.70;;;;;;6288827;28;20046;-84
2023/03/23 09:09:40;;;;;;;1.13;1.00;;;16.20;95.90;;;;;;6301691;28;20040;-82
2023/03/23 09:12:43;;;;;;;2.17;1.13;;;16.00;96.20;;;;;;6304333;28;20059;-83
2023/03/23 09:15:45;;;;;;;1.17;0.95;;;15.90;96.60;;;;;;6303554;28;20064;-83
2023/03/23 09:18:49;;;;;;;2.13;1.55;;;15.90;97.00;;;;;;6302832;28;20056;-83
2023/03/23 09:21:51;;;;;;;1.92;1.63;;;15.90;97.10;;;;;;6298456;28;20045;-83
2023/03/23 09:24:53;;;;;;;2.53;1.13;;;15.90;97.10;;;;;;6303027;28;20059;-83
2023/03/23 09:27:59;;;;;;;1.27;1.10;;;16.00;97.00;;;;;;6300380;28;20677;-84
2023/03/23 09:31:01;;;;;;;2.25;1.42;;;16.10;97.10;;;;;;6305719;28;20045;-80
2023/03/23 09:34:03;;;;;;;1.10;1.00;;;16.00;97.40;;;;;;6297365;28;20036;-79
2023/03/23 09:37:06;;;;;;;2.33;1.35;;;15.80;97.60;;;;;;6289789;28;20507;-82
2023/03/23 09:40:18;;;;;;;1.40;1.30;;;15.60;97.90;;;;;;6296353;28;20045;-84
2023/03/23 09:43:44;;;;;;;2.22;1.45;;;15.50;98.50;;;;;;6294476;28;20055;-81
2023/03/23 09:46:57;;;;;;;2.25;1.00;;;15.40;98.90;;;;;;6292795;28;20508;-82
2023/03/23 09:50:03;;;;;;;2.90;1.80;;;15.20;99.30;;;;;;6292561;28;20044;-83
2023/03/23 09:53:10;;;;;;;1.23;1.13;;;15.20;99.70;;;;;;6293000;28;20044;-81
2023/03/23 09:56:16;;;;;;;4.07;1.58;;;15.00;99.90;;;;;;6294788;28;20043;-80
2023/03/23 09:59:24;;;;;;;1.35;1.02;;;14.90;99.90;;;;;;6300903;28;20086;-84
2023/03/23 10:02:33;;;;;;;2.53;1.15;;;14.70;99.90;;;;;;6299051;28;20055;-82
2023/03/23 10:05:44;;;;;;;0.85;0.60;;;14.60;99.90;;;;;;6297138;28;20040;-81
2023/03/23 10:08:48;;;;;;;2.92;1.52;;;14.50;99.90;;;;;;6295782;28;20044;-80
2023/03/23 10:11:57;;;;;;;0.60;0.60;;;14.40;99.90;;;;;;6301233;28;20066;-80
2023/03/23 10:15:10;;;;;;;2.08;1.65;;;14.30;99.90;;;;;;6293370;28;20064;-82
2023/03/23 10:18:17;;;;;;;0.70;0.70;;;14.30;99.90;;;;;;6303143;28;20045;-80
2023/03/23 10:21:23;;;;;;;1.13;1.03;;;14.30;99.90;;;;;;6304308;28;20491;-80
2023/03/23 10:24:31;;;;;;;1.20;1.10;;;14.30;99.90;;;;;;6303691;28;20114;-81
2023/03/23 10:27:39;;;;;;;2.75;1.35;;;14.30;99.90;;;;;;6303941;28;20135;-81
2023/03/23 10:30:45;;;;;;;1.40;1.23;;;14.40;99.90;;;;;;6294909;28;20142;-82
2023/03/23 10:33:49;;;;;;;1.65;1.38;;;14.30;99.90;;;;;;6302730;28;20426;-80
2023/03/23 10:36:58;;;;;;;1.73;1.25;;;14.20;99.90;;;;;;6302169;28;20124;-81
2023/03/23 10:40:03;;;;;;;1.58;1.05;;;14.10;99.90;;;;;;6302278;28;20048;-81
2023/03/23 10:43:05;;;;;;;3.63;1.20;;;14.10;99.90;;;;;;6302270;28;20060;-80
2023/03/23 10:46:19;;;;;;;1.55;1.40;;;14.00;99.90;;;;;;6303494;28;20055;-81
2023/03/23 10:49:25;;;;;;;1.73;1.30;;;14.00;99.90;;;;;;6307397;28;20051;-80
2023/03/23 10:52:32;;;;;;;1.25;1.17;;;14.00;99.90;;;;;;6304823;28;20549;-81
2023/03/23 10:55:38;;;;;;;1.40;1.30;;;14.10;99.90;;;;;;6303890;28;20052;-80
2023/03/23 10:58:40;;;;;;;2.42;1.40;;;14.10;99.90;;;;;;6296772;28;20122;-82
2023/03/23 11:01:48;;;;;;;1.52;1.02;;;14.10;99.90;;;;;;6303728;28;20517;-81
2023/03/23 11:04:59;;;;;;;1.55;1.45;;;14.20;99.90;;;;;;6304385;28;20110;-80
2023/03/23 11:08:02;;;;;;;1.38;1.00;;;14.40;99.90;;;;;;6303536;28;20041;-81
2023/03/23 11:11:11;;;;;;;1.13;1.02;;;14.40;99.90;;;;;;6303693;28;20464;-80
2023/03/23 11:14:19;;;;;;;1.77;1.42;;;14.40;99.90;;;;;;6304594;28;20104;-80
2023/03/23 11:17:25;;;;;;;2.67;1.15;;;14.40;99.90;;;;;;6303591;28;20048;-81
2023/03/23 11:20:29;;;;;;;2.60;1.60;;;14.40;99.90;;;;;;6303505;28;20522;-79
2023/03/23 11:23:34;;;;;;;2.35;1.67;;;14.40;99.90;;;;;;6304425;28;20060;-81
2023/03/23 11:26:39;;;;;;;2.17;1.63;;;14.40;99.90;;;;;;6303844;28;20190;-80
2023/03/23 11:29:49;;;;;;;1.58;1.27;;;14.40;99.90;;;;;;6295815;28;20140;-80
2023/03/23 11:33:05;;;;;;;2.70;1.70;;;14.40;99.90;;;;;;6302700;28;20048;-79
2023/03/23 11:36:09;;;;;;;3.80;1.90;;;14.40;99.90;;;;;;6302500;28;20041;-81
2023/03/23 11:39:23;;;;;;;1.65;1.40;;;14.60;99.90;;;;;;6302763;28;20060;-81
2023/03/23 11:42:29;;;;;;;2.35;1.75;;;14.60;99.90;;;;;;6302226;28;20243;-82
2023/03/23 11:45:35;;;;;;;1.77;1.50;;;14.70;99.90;;;;;;6302619;28;20059;-81
2023/03/23 11:48:44;;;;;;;1.50;1.40;;;14.80;99.90;;;;;;6287025;28;20047;-81
2023/03/23 11:51:49;;;;;;;1.75;1.38;;;14.90;99.90;;;;;;6278699;28;20136;-81
2023/03/23 11:55:05;;;;;;;3.38;1.40;;;15.00;99.90;;;;;;6278571;28;20487;-80
2023/03/23 11:58:14;;;;;;;2.47;1.27;;;15.10;99.90;;;;;;6290639;28;20049;-82
2023/03/23 12:01:31;;;;;;;2.53;1.15;;;15.20;99.90;;;;;;6277501;28;20392;-80
2023/03/23 12:04:56;;;;;;;1.40;1.30;;;15.30;99.90;;;;;;6271339;28;20102;-79
2023/03/23 12:08:08;;;;;;;2.30;1.25;;;15.40;99.90;;;;;;6176618;28;20153;-80
2023/03/23 12:11:16;;;;;;;1.20;0.80;;;15.50;99.90;;;;;;6266392;28;20059;-82
2023/03/23 12:14:27;;;;;;;1.38;1.05;;;15.50;99.90;;;;;;6303785;28;20418;-83
2023/03/23 12:17:39;;;;;;;2.33;1.38;;;15.60;99.90;;;;;;6308630;28;20091;-83
2023/03/23 12:20:58;;;;;;;1.42;1.20;;;15.70;99.90;;;;;;6311334;28;20059;-84
2023/03/23 12:24:09;;;;;;;0.63;0.63;;;15.90;99.90;;;;;;6296012;28;20068;-84
2023/03/23 12:27:24;;;;;;;2.28;1.50;;;16.00;99.90;;;;;;6296251;28;20044;-83
2023/03/23 12:30:36;;;;;;;1.05;0.95;;;15.90;99.90;;;;;;6295966;28;20490;-80
2023/03/23 12:33:55;;;;;;;1.10;1.00;;;16.00;99.90;;;;;;6277680;28;20060;-82
2023/03/23 12:37:14;;;;;;;1.15;0.90;;;16.10;99.90;;;;;;6295377;28;20045;-83
2023/03/23 12:40:48;;;;;;;2.30;1.45;;;16.20;99.90;;;;;;6285060;28;20049;-82
2023/03/23 12:44:01;;;;;;;2.33;1.00;;;16.10;99.90;;;;;;6193594;28;20402;-83
2023/03/23 12:47:32;;;;;;;3.95;2.05;;;16.20;99.90;;;;;;6298187;28;20094;-84
2023/03/23 12:50:40;;;;;;;1.15;1.05;;;16.20;99.90;;;;;;6292589;28;20202;-81
2023/03/23 12:53:51;;;;;;;2.58;1.65;;;16.10;99.90;;;;;;6285885;28;20049;-82
2023/03/23 12:57:00;;;;;;;7.50;1.95;;;16.10;99.90;;;;;;6290854;28;20091;-81
2023/03/23 13:00:11;;;;;;;1.45;1.13;;;16.10;99.70;;;;;;6292259;28;20041;-83
2023/03/23 13:03:45;;;;;;;1.10;1.00;;;16.20;99.90;;;;;;6295047;28;20474;-84
2023/03/23 13:06:48;;;;;;;1.30;1.20;;;16.30;99.90;;;;;;6249305;28;20049;-83
2023/03/23 13:13:23;;;;;;;1.02;0.93;;;16.50;99.90;;;;;;6299245;28;20423;-82
2023/03/23 13:16:32;;;;;;;0.47;0.47;;;16.50;99.90;;;;;;6299608;28;20052;-83
2023/03/23 13:19:45;;;;;;;2.10;1.88;;;16.50;99.80;;;;;;6297938;28;20051;-82
2023/03/23 13:22:54;;;;;;;2.38;1.02;;;16.60;99.60;;;;;;6302026;28;20223;-84
2023/03/23 13:26:01;;;;;;;11.25;10.27;;;16.60;99.40;;;;;;6297476;28;20499;-80
2023/03/23 13:29:11;;;;;;;3.95;3.50;;;16.80;99.20;;;;;;6298609;28;20047;-82
2023/03/23 13:32:17;;;;;;;1.73;1.10;;;16.90;99.00;;;;;;6294845;28;20588;-84
2023/03/23 13:35:22;;;;;;;3.45;3.03;;;17.00;99.00;;;;;;6301415;28;20499;-83
2023/03/23 13:38:26;;;;;;;0.95;0.93;;;17.00;98.80;;;;;;6297830;28;20051;-81
2023/03/23 13:41:30;;;;;;;3.30;1.63;;;17.20;98.50;;;;;;6300266;28;20140;-83
2023/03/23 13:44:45;;;;;;;1.67;1.35;;;17.40;98.60;;;;;;6303033;28;20045;-84
2023/03/23 13:47:52;;;;;;;1.20;1.10;;;17.40;98.00;;;;;;6295288;28;20138;-81
2023/03/23 13:50:57;;;;;;;2.15;1.85;;;17.50;98.10;;;;;;6298991;28;20049;-83
2023/03/23 13:54:14;;;;;;;3.08;1.20;;;17.70;98.00;;;;;;6295697;28;20098;-81
2023/03/23 13:57:28;;;;;;;1.60;1.10;;;17.70;97.60;;;;;;6299515;28;20047;-83
2023/03/23 14:00:46;;;;;;;2.00;1.90;;;17.80;97.30;;;;;;6298750;28;20246;-83
2023/03/23 14:03:50;;;;;;;3.03;1.23;;;18.00;97.30;;;;;;6294434;28;20048;-83
2023/03/23 14:06:53;;;;;;;2.53;1.92;;;18.10;97.20;;;;;;6296839;28;20044;-81
2023/03/23 14:09:55;;;;;;;1.40;1.30;;;18.20;96.90;;;;;;6289267;28;20068;-83
2023/03/23 14:13:00;;;;;;;1.58;1.48;;;18.30;96.70;;;;;;6291947;28;20045;-83
2023/03/23 14:19:29;;;;;;;1.63;1.52;;;18.40;96.10;;;;;;6295065;28;20063;-83
2023/03/23 14:22:34;;;;;;;2.67;2.25;;;18.40;95.40;;;;;;6294000;28;20044;-85
2023/03/23 14:25:50;;;;;;;1.83;1.60;;;18.20;95.50;;;;;;6294745;28;20129;-83
2023/03/23 14:29:00;;;;;;;2.50;1.20;;;18.10;95.40;;;;;;6297465;28;20051;-84
2023/03/23 14:32:03;;;;;;;2.15;1.20;;;18.00;95.30;;;;;;6294352;28;20119;-84
2023/03/23 14:35:19;;;;;;;1.60;1.20;;;17.90;95.30;;;;;;6299860;28;20054;-81
2023/03/23 14:38:32;;;;;;;1.35;1.10;;;17.70;95.30;;;;;;6298156;28;20562;-84
2023/03/23 14:41:37;;;;;;;2.72;1.17;;;17.80;95.30;;;;;;6299021;28;20049;-82
2023/03/23 14:44:48;;;;;;;3.00;1.52;;;17.80;95.30;;;;;;6291862;28;20081;-84
2023/03/23 14:48:12;;;;;;;2.45;1.45;;;17.60;95.20;;;;;;6303380;28;20124;-83
2023/03/23 14:51:19;;;;;;;3.88;1.45;;;17.60;95.20;;;;;;6254180;28;20056;-81
2023/03/23 14:54:26;;;;;;;2.90;1.63;;;17.50;95.20;;;;;;6299332;28;20531;-81
2023/03/23 14:57:30;;;;;;;2.45;2.00;;;17.50;95.30;;;;;;6302011;28;20051;-84
2023/03/23 15:00:38;;;;;;;1.95;1.70;;;17.50;95.30;;;;;;6296025;28;20046;-81
2023/03/23 15:03:44;;;;;;;3.88;3.58;;;17.50;95.40;;;;;;6298951;28;20048;-83
2023/03/23 15:06:51;;;;;;;2.22;2.03;;;17.50;95.40;;;;;;6300981;28;20044;-83
2023/03/23 15:10:34;;;;;;;2.30;1.90;;;17.50;95.50;;;;;;6296702;28;20055;-79
2023/03/23 15:17:48;;;;;;;4.88;4.38;;;17.50;95.70;;;;;;6222129;28;20054;-83
2023/03/23 15:20:50;;;;;;;8.05;6.75;;;17.50;95.70;;;;;;6230815;28;20044;-81
2023/03/23 15:23:52;;;;;;;3.63;3.33;;;17.40;95.70;;;;;;6301984;28;20052;-83
2023/03/23 15:27:28;;;;;;;3.97;3.38;;;17.40;95.90;;;;;;6296231;28;20055;-82
2023/03/23 15:30:58;;;;;;;2.60;2.40;;;17.30;96.00;;;;;;6290275;28;20073;-81
2023/03/23 15:34:07;;;;;;;4.30;2.08;;;17.50;96.20;;;;;;6298849;28;20044;-82
2023/03/23 15:45:23;;;;;;;3.63;2.72;;;17.40;96.50;;;;;;6292989;28;20097;-83
2023/03/23 15:48:25;;;;;;;2.70;1.95;;;17.40;96.60;;;;;;6298659;28;20048;-84
2023/03/23 15:51:32;;;;;;;1.33;1.13;;;17.40;96.60;;;;;;6299625;28;20510;-84
2023/03/23 15:54:46;;;;;;;2.97;1.58;;;17.50;96.70;;;;;;6302439;28;20427;-83
2023/03/23 15:57:49;;;;;;;2.10;1.90;;;17.30;96.70;;;;;;6298781;28;20510;-83
2023/03/23 16:00:52;;;;;;;1.98;1.70;;;17.30;96.60;;;;;;6299499;28;20605;-83
2023/03/23 16:03:57;;;;;;;1.75;1.48;;;17.30;96.60;;;;;;6298109;28;20060;-84
2023/03/23 16:07:01;;;;;;;2.20;1.95;;;17.30;96.70;;;;;;6297105;28;20060;-83
2023/03/23 16:10:03;;;;;;;1.13;1.02;;;17.20;96.90;;;;;;6294228;28;20098;-83
2023/03/23 16:13:05;;;;;;;1.88;1.70;;;17.20;97.00;;;;;;6296067;28;20041;-83
2023/03/23 16:16:14;;;;;;;8.73;1.58;;;17.20;96.90;;;;;;6294702;28;20052;-84
2023/03/23 16:22:49;;;;;;;1.98;1.77;;;17.20;97.10;;;;;;6305311;28;20071;-83
2023/03/23 16:25:51;;;;;;;3.55;1.85;;;17.10;97.10;;;;;;6298653;28;20519;-82
2023/03/23 16:28:53;;;;;;;1.83;1.52;;;17.00;97.20;;;;;;6294068;28;20045;-81
2023/03/23 16:31:55;;;;;;;1.65;1.55;;;17.00;97.30;;;;;;6294315;28;20080;-82
2023/03/23 16:34:57;;;;;;;1.85;1.75;;;16.90;97.30;;;;;;6292887;28;20059;-82